createdAt,value
2017-08-08T00:01:37.901Z,9.40
2017-08-08T00:04:05.378Z,8.77
2017-08-08T00:06:33.645Z,6.70
2017-08-08T00:09:01.150Z,7.20
2017-08-08T00:11:28.642Z,14.60
2017-08-08T00:13:56.152Z,9.77
2017-08-08T00:16:23.621Z,6.43
2017-08-08T00:18:51.125Z,10.60
2017-08-08T00:21:18.621Z,8.80
2017-08-08T00:23:46.104Z,9.80
2017-08-08T00:26:13.582Z,11.03
2017-08-08T00:28:41.064Z,14.63
2017-08-08T00:31:08.545Z,9.33
2017-08-08T00:33:36.817Z,9.03
2017-08-08T00:36:05.065Z,9.30
2017-08-08T00:38:32.597Z,23.10
2017-08-08T00:41:00.089Z,13.47
2017-08-08T00:43:27.601Z,13.70
2017-08-08T00:45:55.122Z,7.90
2017-08-08T00:48:23.365Z,6.63
2017-08-08T00:50:50.841Z,7.10
2017-08-08T00:53:18.331Z,8.40
2017-08-08T00:55:46.564Z,6.90
2017-08-08T00:58:14.067Z,7.07
2017-08-08T01:00:41.572Z,6.40
2017-08-08T01:03:09.041Z,6.13
2017-08-08T01:05:36.540Z,6.30
2017-08-08T01:08:04.018Z,7.17
2017-08-08T01:10:31.520Z,7.00
2017-08-08T01:12:59.001Z,6.80
2017-08-08T01:15:27.246Z,6.50
2017-08-08T01:17:54.744Z,6.87
2017-08-08T01:20:23.000Z,6.10
2017-08-08T01:22:50.483Z,6.20
2017-08-08T01:25:18.741Z,6.90
2017-08-08T01:27:46.228Z,8.43
2017-08-08T01:30:13.717Z,9.40
2017-08-08T01:32:41.205Z,11.50
2017-08-08T01:35:08.704Z,30.93
2017-08-08T01:37:36.188Z,23.20
2017-08-08T01:40:03.680Z,9.70
2017-08-08T01:42:31.181Z,9.30
2017-08-08T01:44:58.668Z,7.53
2017-08-08T01:47:26.169Z,8.20
2017-08-08T01:49:54.437Z,8.90
2017-08-08T01:52:21.925Z,8.32
2017-08-08T01:54:49.424Z,9.73
2017-08-08T01:57:16.914Z,8.83
2017-08-08T01:59:44.425Z,7.77
2017-08-08T02:02:11.921Z,6.83
2017-08-08T02:04:39.441Z,7.97
2017-08-08T02:07:06.937Z,6.37
2017-08-08T02:09:34.417Z,6.43
2017-08-08T02:12:02.666Z,6.93
2017-08-08T02:14:30.165Z,6.80
2017-08-08T02:16:57.657Z,8.73
2017-08-08T02:19:25.163Z,8.32
2017-08-08T02:21:53.406Z,8.10
2017-08-08T02:24:20.944Z,9.15
2017-08-08T02:26:48.447Z,7.40
2017-08-08T02:29:16.692Z,6.72
2017-08-08T02:31:44.234Z,7.50
2017-08-08T02:34:11.729Z,7.43
2017-08-08T02:36:39.231Z,8.20
2017-08-08T02:39:06.720Z,7.80
2017-08-08T02:41:34.216Z,7.20
2017-08-08T02:44:01.698Z,7.68
2017-08-08T02:46:29.208Z,6.97
2017-08-08T02:48:56.696Z,7.67
2017-08-08T02:51:24.960Z,7.75
2017-08-08T02:53:52.460Z,6.40
2017-08-08T02:56:19.956Z,7.87
2017-08-08T02:58:47.441Z,6.33
2017-08-08T03:01:14.957Z,7.93
2017-08-08T03:03:42.436Z,7.32
2017-08-08T03:06:09.976Z,8.02
2017-08-08T03:08:37.453Z,6.40
2017-08-08T03:11:04.972Z,7.40
2017-08-08T03:13:32.481Z,6.90
2017-08-08T03:18:36.772Z,7.15
2017-08-08T03:23:40.969Z,6.50
2017-08-08T03:26:09.230Z,7.30
2017-08-08T03:28:36.697Z,7.33
2017-08-08T03:31:05.013Z,7.68
2017-08-08T03:33:32.506Z,9.43
2017-08-08T03:36:00.028Z,8.55
2017-08-08T03:38:27.507Z,8.63
2017-08-08T03:40:55.025Z,8.07
2017-08-08T03:43:23.262Z,7.97
2017-08-08T03:45:50.760Z,8.37
2017-08-08T03:48:19.002Z,7.40
2017-08-08T03:50:46.494Z,8.03
2017-08-08T03:53:13.973Z,7.23
2017-08-08T03:55:41.466Z,7.43
2017-08-08T03:58:08.945Z,7.63
2017-08-08T04:00:36.433Z,7.80
2017-08-08T04:03:03.909Z,7.30
2017-08-08T04:05:31.496Z,8.10
2017-08-08T04:07:58.989Z,8.23
2017-08-08T04:10:26.469Z,8.37
2017-08-08T04:12:54.763Z,8.70
2017-08-08T04:15:22.993Z,8.63
2017-08-08T04:17:50.508Z,8.20
2017-08-08T04:20:18.028Z,8.03
2017-08-08T04:22:45.514Z,8.63
2017-08-08T04:25:13.761Z,7.40
2017-08-08T04:27:41.234Z,7.50
2017-08-08T04:30:09.497Z,9.70
2017-08-08T04:32:36.969Z,7.97
2017-08-08T04:35:05.221Z,8.30
2017-08-08T04:37:32.720Z,7.57
2017-08-08T04:40:00.204Z,7.33
2017-08-08T04:42:27.697Z,7.27
2017-08-08T04:44:55.184Z,7.47
2017-08-08T04:47:23.449Z,7.13
2017-08-08T04:49:50.918Z,7.13
2017-08-08T04:52:19.163Z,8.33
2017-08-08T04:54:46.637Z,8.50
2017-08-08T04:57:14.898Z,7.90
2017-08-08T04:59:43.148Z,7.33
2017-08-08T05:02:10.661Z,6.80
2017-08-08T05:04:38.917Z,7.60
2017-08-08T05:07:06.388Z,6.37
2017-08-08T05:09:34.661Z,7.23
2017-08-08T05:12:02.904Z,8.03
2017-08-08T05:14:30.401Z,7.47
2017-08-08T05:16:58.646Z,7.57
2017-08-08T05:19:26.143Z,8.13
2017-08-08T05:21:54.405Z,7.90
2017-08-08T05:24:22.640Z,8.20
2017-08-08T05:26:50.152Z,8.07
2017-08-08T05:29:18.416Z,7.33
2017-08-08T05:31:45.921Z,7.60
2017-08-08T05:34:13.409Z,7.37
2017-08-08T05:36:40.896Z,7.03
2017-08-08T05:39:08.416Z,7.43
2017-08-08T05:41:35.893Z,7.80
2017-08-08T05:44:03.386Z,8.27
2017-08-08T05:46:30.973Z,7.63
2017-08-08T05:48:58.468Z,8.67
2017-08-08T05:51:25.949Z,7.30
2017-08-08T05:53:54.216Z,7.80
2017-08-08T05:56:21.684Z,6.90
2017-08-08T05:58:50.060Z,7.53
2017-08-08T06:01:18.331Z,7.00
2017-08-08T06:03:45.835Z,8.00
2017-08-08T06:06:13.312Z,8.03
2017-08-08T06:08:40.810Z,7.43
2017-08-08T06:11:09.053Z,8.30
2017-08-08T06:13:36.561Z,8.17
2017-08-08T06:16:04.800Z,7.80
2017-08-08T06:18:32.287Z,6.97
2017-08-08T06:20:59.813Z,6.80
2017-08-08T06:23:27.304Z,7.00
2017-08-08T06:25:55.573Z,7.50
2017-08-08T06:28:23.835Z,7.60
2017-08-08T06:30:51.316Z,6.37
2017-08-08T06:33:19.563Z,6.10
2017-08-08T06:35:47.037Z,5.10
2017-08-08T06:38:14.523Z,5.07
2017-08-08T06:40:42.012Z,5.37
2017-08-08T06:43:09.505Z,4.77
2017-08-08T06:45:36.976Z,4.47
2017-08-08T06:48:05.228Z,4.90
2017-08-08T06:50:32.709Z,5.20
2017-08-08T06:53:00.979Z,5.47
2017-08-08T06:55:28.453Z,5.57
2017-08-08T06:57:56.685Z,5.50
2017-08-08T07:00:24.205Z,5.80
2017-08-08T07:02:51.696Z,5.10
2017-08-08T07:05:19.185Z,4.13
2017-08-08T07:07:46.652Z,4.37
2017-08-08T07:10:14.901Z,3.80
2017-08-08T07:12:42.379Z,5.33
2017-08-08T07:15:09.865Z,3.90
2017-08-08T07:17:37.336Z,4.87
2017-08-08T07:20:04.825Z,4.97
2017-08-08T07:22:32.304Z,5.07
2017-08-08T07:24:59.784Z,4.57
2017-08-08T07:27:28.043Z,4.90
2017-08-08T07:29:55.512Z,5.13
2017-08-08T07:32:23.773Z,5.57
2017-08-08T07:34:51.237Z,5.10
2017-08-08T07:37:18.721Z,5.40
2017-08-08T07:39:46.212Z,5.47
2017-08-08T07:42:13.693Z,5.43
2017-08-08T07:44:41.163Z,6.00
2017-08-08T07:47:08.654Z,5.67
2017-08-08T07:49:36.128Z,5.30
2017-08-08T07:52:03.628Z,6.20
2017-08-08T07:54:31.123Z,6.03
2017-08-08T07:56:59.373Z,5.40
2017-08-08T07:59:26.865Z,5.37
2017-08-08T08:01:54.325Z,5.37
2017-08-08T08:04:21.821Z,5.30
2017-08-08T08:06:49.306Z,5.43
2017-08-08T08:09:16.784Z,5.43
2017-08-08T08:11:45.066Z,5.17
2017-08-08T08:14:13.311Z,4.80
2017-08-08T08:16:40.800Z,4.73
2017-08-08T08:19:09.037Z,5.00
2017-08-08T08:21:36.502Z,4.63
2017-08-08T08:24:03.988Z,4.67
2017-08-08T08:26:32.229Z,4.23
2017-08-08T08:28:59.712Z,4.53
2017-08-08T08:31:27.944Z,4.77
2017-08-08T08:33:55.432Z,3.93
2017-08-08T08:36:22.920Z,3.60
2017-08-08T08:38:50.439Z,4.30
2017-08-08T08:41:17.920Z,3.10
2017-08-08T08:43:46.170Z,3.20
2017-08-08T08:46:13.662Z,3.90
2017-08-08T08:48:41.897Z,3.13
2017-08-08T08:51:09.361Z,2.70
2017-08-08T08:53:36.850Z,3.20
2017-08-08T08:56:05.100Z,2.70
2017-08-08T08:58:32.599Z,2.90
2017-08-08T09:01:00.096Z,2.37
2017-08-08T09:03:27.576Z,2.33
2017-08-08T09:05:55.068Z,2.50
2017-08-08T09:08:23.300Z,2.50
2017-08-08T09:10:50.789Z,2.77
2017-08-08T09:13:19.019Z,3.10
2017-08-08T09:15:46.509Z,2.70
2017-08-08T09:18:13.992Z,2.70
2017-08-08T09:20:42.247Z,2.93
2017-08-08T09:23:10.489Z,2.83
2017-08-08T09:25:37.989Z,3.27
2017-08-08T09:28:05.472Z,2.43
2017-08-08T09:30:32.949Z,2.90
2017-08-08T09:33:00.493Z,3.00
2017-08-08T09:35:27.962Z,2.57
2017-08-08T09:37:55.499Z,2.50
2017-08-08T09:40:23.767Z,2.83
2017-08-08T09:42:51.996Z,2.43
2017-08-08T09:45:19.480Z,2.17
2017-08-08T09:47:46.953Z,2.37
2017-08-08T09:50:15.233Z,3.23
2017-08-08T09:52:43.474Z,2.67
2017-08-08T09:55:10.937Z,2.97
2017-08-08T09:57:38.435Z,2.90
2017-08-08T10:00:06.680Z,4.10
2017-08-08T10:02:34.172Z,3.83
2017-08-08T10:05:01.759Z,4.00
2017-08-08T10:07:29.236Z,4.17
2017-08-08T10:09:56.717Z,3.10
2017-08-08T10:12:24.209Z,2.90
2017-08-08T10:14:52.468Z,3.00
2017-08-08T10:17:20.705Z,3.60
2017-08-08T10:19:48.180Z,4.30
2017-08-08T10:22:15.668Z,4.67
2017-08-08T10:24:43.905Z,3.10
2017-08-08T10:27:11.373Z,3.83
2017-08-08T10:29:38.865Z,3.40
2017-08-08T10:32:07.097Z,3.03
2017-08-08T10:34:34.580Z,2.50
2017-08-08T10:37:02.819Z,2.10
2017-08-08T10:39:30.301Z,2.33
2017-08-08T10:41:57.800Z,2.10
2017-08-08T10:44:25.280Z,2.30
2017-08-08T10:46:52.768Z,2.07
2017-08-08T10:49:20.252Z,1.80
2017-08-08T10:51:48.511Z,2.67
2017-08-08T10:54:15.995Z,1.90
2017-08-08T10:56:44.223Z,1.83
2017-08-08T10:59:11.713Z,2.13
2017-08-08T11:01:39.185Z,2.30
2017-08-08T11:04:07.448Z,2.20
2017-08-08T11:06:34.969Z,2.10
2017-08-08T11:09:02.461Z,2.87
2017-08-08T11:11:29.981Z,2.37
2017-08-08T11:13:57.460Z,2.30
2017-08-08T11:16:24.947Z,2.30
2017-08-08T11:18:53.191Z,3.03
2017-08-08T11:21:20.690Z,3.70
2017-08-08T11:23:48.912Z,3.50
2017-08-08T11:26:16.382Z,3.00
2017-08-08T11:28:43.866Z,2.93
2017-08-08T11:31:11.356Z,3.40
2017-08-08T11:33:38.860Z,2.57
2017-08-08T11:36:06.331Z,2.87
2017-08-08T11:38:33.800Z,2.50
2017-08-08T11:41:01.283Z,2.27
2017-08-08T11:43:28.759Z,2.50
2017-08-08T11:45:56.221Z,3.40
2017-08-08T11:48:23.721Z,2.70
2017-08-08T11:50:51.195Z,1.80
2017-08-08T11:53:19.433Z,2.70
2017-08-08T11:55:46.918Z,1.80
2017-08-08T11:58:14.422Z,2.27
2017-08-08T12:00:41.884Z,1.80
2017-08-08T12:03:09.357Z,2.00
2017-08-08T12:05:36.837Z,1.80
2017-08-08T12:08:04.329Z,1.90
2017-08-08T12:10:32.568Z,1.97
2017-08-08T12:13:00.044Z,2.10
2017-08-08T12:15:27.546Z,1.70
2017-08-08T12:17:55.021Z,2.00
2017-08-08T12:20:22.502Z,1.70
2017-08-08T12:22:50.005Z,2.00
2017-08-08T12:25:18.229Z,1.67
2017-08-08T12:27:45.716Z,1.80
2017-08-08T12:30:13.945Z,1.70
2017-08-08T12:32:41.412Z,1.40
2017-08-08T12:35:08.916Z,1.50
2017-08-08T12:37:37.162Z,1.60
2017-08-08T12:40:04.630Z,1.50
2017-08-08T12:42:32.113Z,1.57
2017-08-08T12:44:59.599Z,1.30
2017-08-08T12:47:27.088Z,1.47
2017-08-08T12:49:55.344Z,1.33
2017-08-08T12:52:22.804Z,1.37
2017-08-08T12:54:50.285Z,1.33
2017-08-08T12:57:17.752Z,1.30
2017-08-08T12:59:45.243Z,1.30
2017-08-08T13:02:12.709Z,1.30
2017-08-08T13:04:40.196Z,1.53
2017-08-08T13:07:07.672Z,1.50
2017-08-08T13:09:35.137Z,1.40
2017-08-08T13:12:02.632Z,1.80
2017-08-08T13:14:30.104Z,1.53
2017-08-08T13:16:57.584Z,1.90
2017-08-08T13:19:25.081Z,1.60
2017-08-08T13:21:52.571Z,1.90
2017-08-08T13:24:20.048Z,1.87
2017-08-08T13:26:47.550Z,1.63
2017-08-08T13:29:15.025Z,2.00
2017-08-08T13:31:43.288Z,1.90
2017-08-08T13:34:10.764Z,1.70
2017-08-08T13:36:39.021Z,1.70
2017-08-08T13:39:06.524Z,1.90
2017-08-08T13:41:34.001Z,1.50
2017-08-08T13:44:01.501Z,1.80
2017-08-08T13:46:28.974Z,1.60
2017-08-08T13:48:57.254Z,1.60
2017-08-08T13:51:25.510Z,1.77
2017-08-08T13:53:52.973Z,1.80
2017-08-08T13:56:21.241Z,1.57
2017-08-08T13:58:48.714Z,1.77
2017-08-08T14:01:16.968Z,2.17
2017-08-08T14:03:44.453Z,1.90
2017-08-08T14:06:12.721Z,1.47
2017-08-08T14:08:40.968Z,1.63
2017-08-08T14:11:08.462Z,1.50
2017-08-08T14:13:36.720Z,1.40
2017-08-08T14:16:04.978Z,1.50
2017-08-08T14:18:32.473Z,1.60
2017-08-08T14:21:00.712Z,1.30
2017-08-08T14:23:28.191Z,1.40
2017-08-08T14:25:55.682Z,1.30
2017-08-08T14:28:23.197Z,1.30
2017-08-08T14:30:50.678Z,1.30
2017-08-08T14:33:18.924Z,1.13
2017-08-08T14:35:46.421Z,1.00
2017-08-08T14:38:13.921Z,1.10
2017-08-08T14:40:41.402Z,1.10
2017-08-08T14:43:08.875Z,1.00
2017-08-08T14:45:36.369Z,1.00
2017-08-08T14:48:03.870Z,0.90
2017-08-08T14:50:31.369Z,1.03
2017-08-08T14:52:59.611Z,1.10
2017-08-08T14:55:27.138Z,0.90
2017-08-08T14:57:54.609Z,1.00
2017-08-08T15:00:22.155Z,0.80
2017-08-08T15:02:49.627Z,0.80
2017-08-08T15:05:17.121Z,0.90
2017-08-08T15:07:44.599Z,1.10
2017-08-08T15:10:12.190Z,1.30
2017-08-08T15:12:39.696Z,0.90
2017-08-08T15:15:07.205Z,1.20
2017-08-08T15:17:34.687Z,0.90
2017-08-08T15:20:02.223Z,1.00
2017-08-08T15:22:29.690Z,1.10
2017-08-08T15:24:57.240Z,1.00
2017-08-08T15:27:24.721Z,0.97
2017-08-08T15:29:52.273Z,1.10
2017-08-08T15:32:19.752Z,1.00
2017-08-08T15:34:47.275Z,1.00
2017-08-08T15:37:14.745Z,1.00
2017-08-08T15:39:42.294Z,1.10
2017-08-08T15:42:09.766Z,0.97
2017-08-08T15:44:37.242Z,1.10
2017-08-08T15:47:04.732Z,1.00
2017-08-08T15:49:32.993Z,1.17
2017-08-08T15:52:00.485Z,1.10
2017-08-08T15:54:27.958Z,1.30
2017-08-08T15:56:55.436Z,1.30
2017-08-08T15:59:22.932Z,1.37
2017-08-08T16:01:50.395Z,1.23
2017-08-08T16:04:18.666Z,1.00
2017-08-08T16:06:46.905Z,1.00
2017-08-08T16:09:14.397Z,0.90
2017-08-08T16:11:41.888Z,1.10
2017-08-08T16:14:09.362Z,1.10
2017-08-08T16:16:36.862Z,0.90
2017-08-08T16:19:04.402Z,0.80
2017-08-08T16:21:31.908Z,0.80
2017-08-08T16:23:59.391Z,1.00
2017-08-08T16:26:26.892Z,1.00
2017-08-08T16:28:54.411Z,0.90
2017-08-08T16:31:21.891Z,1.00
2017-08-08T16:33:49.382Z,1.20
2017-08-08T16:36:17.654Z,0.90
2017-08-08T16:38:45.146Z,0.90
2017-08-08T16:41:12.649Z,1.00
2017-08-08T16:43:40.145Z,0.97
2017-08-08T16:46:07.649Z,1.10
2017-08-08T16:48:35.138Z,1.10
2017-08-08T16:51:02.762Z,1.10
2017-08-08T16:53:30.237Z,1.20
2017-08-08T16:55:57.728Z,0.80
2017-08-08T16:58:25.213Z,1.00
2017-08-08T17:00:52.808Z,1.07
2017-08-08T17:03:20.323Z,1.10
2017-08-08T17:05:48.563Z,1.00
2017-08-08T17:08:16.095Z,1.13
2017-08-08T17:10:43.617Z,1.30
2017-08-08T17:13:11.954Z,1.17
2017-08-08T17:15:39.452Z,1.20
2017-08-08T17:18:07.716Z,1.13
2017-08-08T17:20:35.239Z,1.13
2017-08-08T17:23:02.821Z,1.07
2017-08-08T17:25:30.333Z,1.10
2017-08-08T17:27:57.844Z,1.20
2017-08-08T17:30:25.334Z,1.17
2017-08-08T17:32:53.588Z,1.20
2017-08-08T17:35:21.145Z,1.20
2017-08-08T17:37:48.642Z,1.10
2017-08-08T17:40:16.121Z,1.20
2017-08-08T17:42:43.621Z,1.20
2017-08-08T17:45:11.159Z,1.30
2017-08-08T17:47:38.639Z,2.33
2017-08-08T17:50:06.153Z,1.30
2017-08-08T17:52:33.712Z,1.13
2017-08-08T17:55:01.190Z,1.13
2017-08-08T17:57:28.692Z,1.30
2017-08-08T17:59:56.949Z,1.27
2017-08-08T18:02:24.450Z,1.00
2017-08-08T18:04:51.959Z,1.20
2017-08-08T18:07:19.449Z,1.27
2017-08-08T18:09:47.691Z,1.20
2017-08-08T18:12:15.261Z,1.27
2017-08-08T18:14:42.756Z,1.40
2017-08-08T18:17:10.334Z,1.63
2017-08-08T18:19:37.847Z,1.83
2017-08-08T18:22:06.103Z,1.47
2017-08-08T18:24:33.597Z,1.63
2017-08-08T18:27:01.860Z,1.40
2017-08-08T18:29:30.204Z,1.30
2017-08-08T18:31:57.717Z,1.30
2017-08-08T18:34:25.208Z,1.20
2017-08-08T18:36:52.733Z,1.40
2017-08-08T18:39:21.021Z,1.10
2017-08-08T18:41:48.517Z,1.20
2017-08-08T18:44:16.039Z,1.10
2017-08-08T18:46:43.536Z,1.57
2017-08-08T18:49:11.135Z,1.20
2017-08-08T18:51:39.655Z,1.27
2017-08-08T18:54:07.259Z,1.40
2017-08-08T18:56:35.580Z,1.90
2017-08-08T18:59:03.064Z,1.37
2017-08-08T19:01:30.529Z,1.80
2017-08-08T19:03:58.298Z,1.20
2017-08-08T19:06:26.142Z,1.33
2017-08-08T19:08:54.008Z,1.87
2017-08-08T19:11:21.503Z,1.30
2017-08-08T19:13:49.336Z,1.90
2017-08-08T19:16:16.870Z,1.60
2017-08-08T19:18:44.657Z,1.60
2017-08-08T19:21:12.524Z,1.30
2017-08-08T19:23:40.392Z,1.30
2017-08-08T19:26:08.258Z,1.17
2017-08-08T19:28:36.126Z,1.23
2017-08-08T19:31:03.993Z,1.33
2017-08-08T19:33:31.509Z,1.00
2017-08-08T19:35:59.760Z,1.30
2017-08-08T19:38:27.278Z,1.30
2017-08-08T19:40:55.052Z,2.13
2017-08-08T19:43:22.919Z,1.03
2017-08-08T19:45:50.785Z,1.60
2017-08-08T19:48:18.656Z,1.20
2017-08-08T19:50:46.519Z,1.33
2017-08-08T19:53:14.387Z,1.40
2017-08-08T19:55:42.255Z,1.23
2017-08-08T19:58:10.128Z,1.20
2017-08-08T20:00:37.988Z,1.10
2017-08-08T20:03:05.958Z,1.20
2017-08-08T20:05:33.937Z,1.30
2017-08-08T20:08:01.806Z,1.30
2017-08-08T20:10:30.621Z,1.10
2017-08-08T20:12:58.655Z,1.43
2017-08-08T20:15:26.307Z,1.40
2017-08-08T20:17:53.902Z,1.33
2017-08-08T20:20:21.660Z,1.30
2017-08-08T20:22:49.282Z,1.40
2017-08-08T20:25:16.862Z,1.40
2017-08-08T20:27:44.372Z,1.30
2017-08-08T20:30:11.857Z,1.60
2017-08-08T20:32:39.356Z,1.50
2017-08-08T20:35:06.890Z,1.40
2017-08-08T20:37:34.368Z,1.20
2017-08-08T20:40:01.861Z,1.20
2017-08-08T20:42:29.338Z,1.40
2017-08-08T20:44:57.650Z,1.20
2017-08-08T20:47:25.126Z,1.37
2017-08-08T20:49:52.610Z,1.40
2017-08-08T20:52:20.109Z,1.73
2017-08-08T20:54:47.584Z,1.40
2017-08-08T20:57:15.081Z,1.27
2017-08-08T20:59:42.571Z,1.40
2017-08-08T21:02:10.821Z,1.17
2017-08-08T21:04:38.303Z,1.40
2017-08-08T21:07:06.549Z,1.60
2017-08-08T21:09:34.045Z,1.60
2017-08-08T21:12:01.513Z,1.37
2017-08-08T21:14:29.003Z,1.10
2017-08-08T21:16:56.525Z,1.20
2017-08-08T21:19:23.996Z,1.23
2017-08-08T21:21:51.492Z,1.10
2017-08-08T21:24:18.979Z,1.40
2017-08-08T21:26:47.230Z,1.30
2017-08-08T21:29:14.732Z,1.30
2017-08-08T21:31:42.235Z,1.60
2017-08-08T21:34:09.732Z,1.40
2017-08-08T21:36:38.051Z,1.33
2017-08-08T21:39:05.549Z,1.60
2017-08-08T21:41:33.025Z,1.30
2017-08-08T21:44:01.264Z,1.43
2017-08-08T21:46:28.760Z,1.20
2017-08-08T21:48:57.005Z,1.30
2017-08-08T21:51:24.497Z,1.40
2017-08-08T21:53:52.795Z,1.50
2017-08-08T21:56:20.370Z,1.60
2017-08-08T21:58:47.870Z,1.57
2017-08-08T22:01:15.376Z,1.30
2017-08-08T22:03:43.714Z,1.60
2017-08-08T22:06:11.980Z,1.50
2017-08-08T22:08:39.461Z,1.60
2017-08-08T22:11:07.710Z,1.60
2017-08-08T22:13:35.206Z,1.20
2017-08-08T22:16:02.794Z,1.77
2017-08-08T22:18:30.290Z,1.70
2017-08-08T22:20:57.784Z,1.93
2017-08-08T22:23:26.020Z,1.50
2017-08-08T22:25:53.514Z,1.50
2017-08-08T22:28:21.759Z,1.77
2017-08-08T22:30:49.261Z,1.70
2017-08-08T22:33:16.744Z,1.70
2017-08-08T22:35:44.251Z,1.50
2017-08-08T22:38:12.496Z,2.13
2017-08-08T22:40:39.974Z,1.50
2017-08-08T22:43:07.483Z,2.30
2017-08-08T22:45:34.955Z,1.70
2017-08-08T22:48:02.713Z,1.97
2017-08-08T22:50:30.204Z,1.70
2017-08-08T22:52:57.708Z,1.80
2017-08-08T22:55:25.187Z,1.70
2017-08-08T22:57:52.746Z,2.00
2017-08-08T23:00:20.220Z,1.80
2017-08-08T23:02:47.713Z,1.70
2017-08-08T23:05:15.208Z,2.10
2017-08-08T23:07:42.681Z,1.90
2017-08-08T23:10:10.173Z,2.10
2017-08-08T23:12:37.651Z,1.80
2017-08-08T23:15:05.925Z,1.80
2017-08-08T23:17:33.431Z,1.50
2017-08-08T23:20:00.922Z,2.20
2017-08-08T23:22:28.401Z,1.60
2017-08-08T23:24:56.668Z,1.70
2017-08-08T23:27:24.136Z,1.77
2017-08-08T23:29:52.372Z,1.90
2017-08-08T23:32:19.860Z,1.77
2017-08-08T23:34:47.354Z,2.97
2017-08-08T23:37:14.829Z,2.20
2017-08-08T23:39:42.308Z,1.80
2017-08-08T23:42:09.800Z,2.10
2017-08-08T23:44:37.289Z,2.27
2017-08-08T23:47:04.765Z,1.90
2017-08-08T23:49:32.265Z,2.00
2017-08-08T23:51:59.741Z,2.00
2017-08-08T23:54:28.057Z,1.97
2017-08-08T23:56:55.540Z,1.90
2017-08-08T23:59:23.075Z,2.70
